Time,TemperatureF,DewpointF,PressureIn,WindDirection,WindDirectionDegrees,WindSpeedMPH,WindSpeedGustMPH,Humidity,HourlyPrecipIn,Conditions,Clouds,dailyrainin,SolarRadiationWatts/m^2,SoftwareType,DateUTC
2013-05-24 00:02:00,48.0,37.0,-100.00,East,92,4.0,6.0,66,0.00,,,0.00,0.000000,,2013-05-24 05:02:00,
2013-05-24 00:11:00,47.0,37.0,-100.00,SE,136,4.0,6.0,67,0.00,,,0.00,0.000000,,2013-05-24 05:11:00,
2013-05-24 00:32:00,47.0,37.0,-100.00,SE,136,4.0,6.0,67,0.00,,,0.00,0.000000,,2013-05-24 05:32:00,
2013-05-24 00:42:00,47.0,37.0,-100.00,SE,136,4.0,6.0,67,0.00,,,0.00,0.000000,,2013-05-24 05:42:00,
2013-05-24 00:52:00,47.0,37.0,-100.00,SE,136,4.0,6.0,67,0.00,,,0.00,0.000000,,2013-05-24 05:52:00,
2013-05-24 01:02:00,47.0,37.0,-100.00,SE,136,4.0,6.0,67,0.00,,,0.00,0.000000,,2013-05-24 06:02:00,
2013-05-24 01:11:00,45.0,34.0,-100.00,SE,128,5.0,8.0,66,0.00,,,0.00,0.000000,,2013-05-24 06:11:00,
2013-05-24 01:32:00,45.0,34.0,-100.00,SE,128,5.0,8.0,66,0.00,,,0.00,0.000000,,2013-05-24 06:32:00,
2013-05-24 01:42:00,45.0,34.0,-100.00,SE,128,5.0,8.0,66,0.00,,,0.00,0.000000,,2013-05-24 06:42:00,
2013-05-24 01:52:00,45.0,34.0,-100.00,SE,128,5.0,8.0,66,0.00,,,0.00,0.000000,,2013-05-24 06:52:00,
2013-05-24 02:01:00,45.0,34.0,-100.00,SE,128,5.0,8.0,66,0.00,,,0.00,0.000000,,2013-05-24 07:01:00,
2013-05-24 02:11:00,45.0,35.0,-100.00,SE,132,6.0,8.0,68,0.00,,,0.00,0.000000,,2013-05-24 07:11:00,
2013-05-24 02:32:00,45.0,35.0,-100.00,SE,132,6.0,8.0,68,0.00,,,0.00,0.000000,,2013-05-24 07:32:00,
2013-05-24 02:42:00,45.0,35.0,-100.00,SE,132,6.0,8.0,68,0.00,,,0.00,0.000000,,2013-05-24 07:42:00,
2013-05-24 02:52:00,45.0,35.0,-100.00,SE,132,6.0,8.0,68,0.00,,,0.00,0.000000,,2013-05-24 07:52:00,
2013-05-24 03:02:00,45.0,35.0,-100.00,SE,132,6.0,8.0,68,0.00,,,0.00,0.000000,,2013-05-24 08:02:00,
2013-05-24 03:11:00,43.0,31.0,-100.00,ESE,102,6.0,8.0,63,0.00,,,0.00,0.000000,,2013-05-24 08:11:00,
2013-05-24 03:33:00,43.0,31.0,-100.00,ESE,102,6.0,8.0,63,0.00,,,0.00,0.000000,,2013-05-24 08:33:00,
2013-05-24 03:42:00,43.0,31.0,-100.00,ESE,102,6.0,8.0,63,0.00,,,0.00,0.000000,,2013-05-24 08:42:00,
2013-05-24 03:52:00,43.0,31.0,-100.00,ESE,102,6.0,8.0,63,0.00,,,0.00,0.000000,,2013-05-24 08:52:00,
2013-05-24 04:02:00,43.0,31.0,-100.00,ESE,102,6.0,8.0,63,0.00,,,0.00,0.000000,,2013-05-24 09:02:00,
2013-05-24 04:11:00,41.0,32.0,-100.00,SE,125,5.0,6.0,71,0.00,,,0.00,0.000000,,2013-05-24 09:11:00,
2013-05-24 04:33:00,41.0,32.0,-100.00,SE,125,5.0,6.0,71,0.00,,,0.00,0.000000,,2013-05-24 09:33:00,
2013-05-24 04:42:00,41.0,32.0,-100.00,SE,125,5.0,6.0,71,0.00,,,0.00,0.000000,,2013-05-24 09:42:00,
2013-05-24 04:53:00,41.0,32.0,-100.00,SE,125,5.0,6.0,71,0.00,,,0.00,0.000000,,2013-05-24 09:53:00,
2013-05-24 05:03:00,41.0,32.0,-100.00,SE,125,5.0,6.0,71,0.00,,,0.00,0.000000,,2013-05-24 10:03:00,
2013-05-24 05:11:00,40.0,33.0,-100.00,SE,130,5.0,6.0,75,0.00,,,0.00,0.000000,,2013-05-24 10:11:00,
2013-05-24 05:33:00,40.0,33.0,-100.00,SE,130,5.0,6.0,75,0.00,,,0.00,0.000000,,2013-05-24 10:33:00,
2013-05-24 05:42:00,40.0,33.0,-100.00,SE,130,5.0,6.0,75,0.00,,,0.00,0.000000,,2013-05-24 10:42:00,
2013-05-24 05:53:00,40.0,33.0,-100.00,SE,130,5.0,6.0,75,0.00,,,0.00,0.000000,,2013-05-24 10:53:00,
2013-05-24 06:02:00,40.0,33.0,-100.00,SE,130,5.0,6.0,75,0.00,,,0.00,0.000000,,2013-05-24 11:02:00,
2013-05-24 06:11:00,40.0,32.0,-100.00,East,100,6.0,9.0,73,0.00,,,0.00,24.000000,,2013-05-24 11:11:00,
2013-05-24 06:32:00,40.0,32.0,-100.00,East,100,6.0,9.0,73,0.00,,,0.00,24.000000,,2013-05-24 11:32:00,
2013-05-24 06:42:00,40.0,32.0,-100.00,East,100,6.0,9.0,73,0.00,,,0.00,24.000000,,2013-05-24 11:42:00,
2013-05-24 06:52:00,40.0,32.0,-100.00,East,100,6.0,9.0,73,0.00,,,0.00,24.000000,,2013-05-24 11:52:00,
2013-05-24 07:02:00,40.0,32.0,-100.00,East,100,6.0,9.0,73,0.00,,,0.00,24.000000,,2013-05-24 12:02:00,
2013-05-24 07:11:00,47.0,35.0,-100.00,ESE,107,5.0,8.0,62,0.00,,,0.00,200.000000,,2013-05-24 12:11:00,
2013-05-24 07:33:00,47.0,35.0,-100.00,ESE,107,5.0,8.0,62,0.00,,,0.00,200.000000,,2013-05-24 12:33:00,
2013-05-24 07:42:00,47.0,35.0,-100.00,ESE,107,5.0,8.0,62,0.00,,,0.00,200.000000,,2013-05-24 12:42:00,
2013-05-24 07:52:00,47.0,35.0,-100.00,ESE,107,5.0,8.0,62,0.00,,,0.00,200.000000,,2013-05-24 12:52:00,
2013-05-24 08:02:00,47.0,35.0,-100.00,ESE,107,5.0,8.0,62,0.00,,,0.00,200.000000,,2013-05-24 13:02:00,
2013-05-24 08:11:00,51.0,34.0,-100.00,SE,125,11.0,15.0,52,0.00,,,0.00,418.000000,,2013-05-24 13:11:00,
2013-05-24 08:32:00,51.0,34.0,-100.00,SE,125,11.0,15.0,52,0.00,,,0.00,418.000000,,2013-05-24 13:32:00,
2013-05-24 08:42:00,51.0,34.0,-100.00,SE,125,11.0,15.0,52,0.00,,,0.00,418.000000,,2013-05-24 13:42:00,
2013-05-24 08:52:00,51.0,34.0,-100.00,SE,125,11.0,15.0,52,0.00,,,0.00,418.000000,,2013-05-24 13:52:00,
2013-05-24 09:01:00,51.0,34.0,-100.00,SE,125,11.0,15.0,52,0.00,,,0.00,418.000000,,2013-05-24 14:01:00,
2013-05-24 09:11:00,55.0,37.0,-100.00,ESE,119,11.0,15.0,50,0.00,,,0.00,614.000000,,2013-05-24 14:11:00,
2013-05-24 09:32:00,55.0,37.0,-100.00,ESE,119,11.0,15.0,50,0.00,,,0.00,614.000000,,2013-05-24 14:32:00,
2013-05-24 09:42:00,55.0,37.0,-100.00,ESE,119,11.0,15.0,50,0.00,,,0.00,614.000000,,2013-05-24 14:42:00,
2013-05-24 09:52:00,55.0,37.0,-100.00,ESE,119,11.0,15.0,50,0.00,,,0.00,614.000000,,2013-05-24 14:52:00,
2013-05-24 10:02:00,55.0,37.0,-100.00,ESE,119,11.0,15.0,50,0.00,,,0.00,614.000000,,2013-05-24 15:02:00,
2013-05-24 10:11:00,58.0,37.0,-100.00,SE,135,11.0,16.0,46,0.00,,,0.00,755.000000,,2013-05-24 15:11:00,
2013-05-24 10:33:00,58.0,37.0,-100.00,SE,135,11.0,16.0,46,0.00,,,0.00,755.000000,,2013-05-24 15:33:00,
2013-05-24 10:43:00,58.0,37.0,-100.00,SE,135,11.0,16.0,46,0.00,,,0.00,755.000000,,2013-05-24 15:43:00,
2013-05-24 10:52:00,58.0,37.0,-100.00,SE,135,11.0,16.0,46,0.00,,,0.00,755.000000,,2013-05-24 15:52:00,
2013-05-24 11:03:00,58.0,37.0,-100.00,SE,135,11.0,16.0,46,0.00,,,0.00,755.000000,,2013-05-24 16:03:00,
2013-05-24 11:11:00,60.0,36.0,-100.00,SE,143,11.0,17.0,41,0.00,,,0.00,935.000000,,2013-05-24 16:11:00,
2013-05-24 11:33:00,60.0,36.0,-100.00,SE,143,11.0,17.0,41,0.00,,,0.00,935.000000,,2013-05-24 16:33:00,
2013-05-24 11:42:00,60.0,36.0,-100.00,SE,143,11.0,17.0,41,0.00,,,0.00,935.000000,,2013-05-24 16:42:00,
2013-05-24 11:52:00,60.0,36.0,-100.00,SE,143,11.0,17.0,41,0.00,,,0.00,935.000000,,2013-05-24 16:52:00,
2013-05-24 12:02:00,60.0,36.0,-100.00,SE,143,11.0,17.0,41,0.00,,,0.00,935.000000,,2013-05-24 17:02:00,
2013-05-24 12:11:00,61.0,40.0,-100.00,SE,137,13.0,21.0,46,0.00,,,0.00,947.000000,,2013-05-24 17:11:00,
2013-05-24 12:32:00,61.0,40.0,-100.00,SE,137,13.0,21.0,46,0.00,,,0.00,947.000000,,2013-05-24 17:32:00,
2013-05-24 12:42:00,61.0,40.0,-100.00,SE,137,13.0,21.0,46,0.00,,,0.00,947.000000,,2013-05-24 17:42:00,
2013-05-24 12:52:00,61.0,40.0,-100.00,SE,137,13.0,21.0,46,0.00,,,0.00,947.000000,,2013-05-24 17:52:00,
2013-05-24 13:01:00,61.0,40.0,-100.00,SE,137,13.0,21.0,46,0.00,,,0.00,947.000000,,2013-05-24 18:01:00,
2013-05-24 13:11:00,66.0,38.0,-100.00,SE,132,15.0,20.0,35,0.00,,,0.00,989.000000,,2013-05-24 18:11:00,
2013-05-24 13:32:00,66.0,38.0,-100.00,SE,132,15.0,20.0,35,0.00,,,0.00,989.000000,,2013-05-24 18:32:00,
2013-05-24 13:42:00,66.0,38.0,-100.00,SE,132,15.0,20.0,35,0.00,,,0.00,989.000000,,2013-05-24 18:42:00,
2013-05-24 13:52:00,66.0,38.0,-100.00,SE,132,15.0,20.0,35,0.00,,,0.00,989.000000,,2013-05-24 18:52:00,
2013-05-24 14:01:00,66.0,38.0,-100.00,SE,132,15.0,20.0,35,0.00,,,0.00,989.000000,,2013-05-24 19:01:00,
2013-05-24 14:11:00,67.0,38.0,-100.00,SE,134,14.0,21.0,35,0.00,,,0.00,796.000000,,2013-05-24 19:11:00,
2013-05-24 14:32:00,67.0,38.0,-100.00,SE,134,14.0,21.0,35,0.00,,,0.00,796.000000,,2013-05-24 19:32:00,
2013-05-24 14:42:00,67.0,38.0,-100.00,SE,134,14.0,21.0,35,0.00,,,0.00,796.000000,,2013-05-24 19:42:00,
2013-05-24 14:52:00,67.0,38.0,-100.00,SE,134,14.0,21.0,35,0.00,,,0.00,796.000000,,2013-05-24 19:52:00,
2013-05-24 15:02:00,67.0,38.0,-100.00,SE,134,14.0,21.0,35,0.00,,,0.00,796.000000,,2013-05-24 20:02:00,
2013-05-24 15:11:00,67.0,38.0,-100.00,SE,138,14.0,23.0,34,0.00,,,0.00,729.000000,,2013-05-24 20:11:00,
2013-05-24 15:32:00,67.0,38.0,-100.00,SE,138,14.0,23.0,34,0.00,,,0.00,729.000000,,2013-05-24 20:32:00,
2013-05-24 15:42:00,67.0,38.0,-100.00,SE,138,14.0,23.0,34,0.00,,,0.00,729.000000,,2013-05-24 20:42:00,
2013-05-24 15:52:00,67.0,38.0,-100.00,SE,138,14.0,23.0,34,0.00,,,0.00,729.000000,,2013-05-24 20:52:00,
2013-05-24 16:01:00,67.0,38.0,-100.00,SE,138,14.0,23.0,34,0.00,,,0.00,729.000000,,2013-05-24 21:01:00,
2013-05-24 16:11:00,65.0,39.0,-100.00,SE,125,11.0,21.0,38,0.00,,,0.00,346.000000,,2013-05-24 21:11:00,
2013-05-24 16:33:00,65.0,39.0,-100.00,SE,125,11.0,21.0,38,0.00,,,0.00,346.000000,,2013-05-24 21:33:00,
2013-05-24 16:43:00,65.0,39.0,-100.00,SE,125,11.0,21.0,38,0.00,,,0.00,346.000000,,2013-05-24 21:43:00,
2013-05-24 16:53:00,65.0,39.0,-100.00,SE,125,11.0,21.0,38,0.00,,,0.00,346.000000,,2013-05-24 21:53:00,
2013-05-24 17:02:00,65.0,39.0,-100.00,SE,125,11.0,21.0,38,0.00,,,0.00,346.000000,,2013-05-24 22:02:00,
2013-05-24 17:11:00,64.0,42.0,-100.00,SE,136,6.0,12.0,44,0.00,,,0.00,92.000000,,2013-05-24 22:11:00,
2013-05-24 17:33:00,64.0,42.0,-100.00,SE,136,6.0,12.0,44,0.00,,,0.00,92.000000,,2013-05-24 22:33:00,
2013-05-24 17:42:00,64.0,42.0,-100.00,SE,136,6.0,12.0,44,0.00,,,0.00,92.000000,,2013-05-24 22:42:00,
2013-05-24 17:52:00,64.0,42.0,-100.00,SE,136,6.0,12.0,44,0.00,,,0.00,92.000000,,2013-05-24 22:52:00,
2013-05-24 18:02:00,64.0,42.0,-100.00,SE,136,6.0,12.0,44,0.00,,,0.00,92.000000,,2013-05-24 23:02:00,
2013-05-24 18:11:00,58.0,46.0,-100.00,East,85,12.0,17.0,64,0.01,,,0.01,28.000000,,2013-05-24 23:11:00,
2013-05-24 18:32:00,58.0,46.0,-100.00,East,85,12.0,17.0,64,0.01,,,0.01,28.000000,,2013-05-24 23:32:00,
2013-05-24 18:42:00,58.0,46.0,-100.00,East,85,12.0,17.0,64,0.01,,,0.01,28.000000,,2013-05-24 23:42:00,
2013-05-24 18:52:00,58.0,46.0,-100.00,East,85,12.0,17.0,64,0.01,,,0.01,28.000000,,2013-05-24 23:52:00,
2013-05-24 19:01:00,58.0,46.0,-100.00,East,85,12.0,17.0,64,0.01,,,0.01,28.000000,,2013-05-25 00:01:00,
2013-05-24 19:11:00,58.0,46.0,-100.00,East,97,7.0,14.0,64,0.00,,,0.01,31.000000,,2013-05-25 00:11:00,
2013-05-24 19:32:00,58.0,46.0,-100.00,East,97,7.0,14.0,64,0.00,,,0.01,31.000000,,2013-05-25 00:32:00,
2013-05-24 19:42:00,58.0,46.0,-100.00,East,97,7.0,14.0,64,0.00,,,0.01,31.000000,,2013-05-25 00:42:00,
2013-05-24 19:52:00,58.0,46.0,-100.00,East,97,7.0,14.0,64,0.00,,,0.01,31.000000,,2013-05-25 00:52:00,
2013-05-24 20:01:00,58.0,46.0,-100.00,East,97,7.0,14.0,64,0.00,,,0.01,31.000000,,2013-05-25 01:01:00,
2013-05-24 20:11:00,56.0,50.0,-100.00,East,89,8.0,10.0,81,0.01,,,0.02,10.000000,,2013-05-25 01:11:00,
2013-05-24 20:32:00,56.0,50.0,-100.00,East,89,8.0,10.0,81,0.01,,,0.02,10.000000,,2013-05-25 01:32:00,
2013-05-24 20:42:00,56.0,50.0,-100.00,East,89,8.0,10.0,81,0.01,,,0.02,10.000000,,2013-05-25 01:42:00,
2013-05-24 20:52:00,56.0,50.0,-100.00,East,89,8.0,10.0,81,0.01,,,0.02,10.000000,,2013-05-25 01:52:00,
2013-05-24 21:02:00,56.0,50.0,-100.00,East,89,8.0,10.0,81,0.01,,,0.02,10.000000,,2013-05-25 02:02:00,
2013-05-24 21:11:00,55.0,50.0,-100.00,ESE,106,14.0,19.0,82,0.04,,,0.06,1.000000,,2013-05-25 02:11:00,
2013-05-24 21:32:00,55.0,50.0,-100.00,ESE,106,14.0,19.0,82,0.04,,,0.06,1.000000,,2013-05-25 02:32:00,
2013-05-24 21:42:00,55.0,50.0,-100.00,ESE,106,14.0,19.0,82,0.04,,,0.06,1.000000,,2013-05-25 02:42:00,
2013-05-24 21:52:00,55.0,50.0,-100.00,ESE,106,14.0,19.0,82,0.04,,,0.06,1.000000,,2013-05-25 02:52:00,
2013-05-24 22:02:00,55.0,50.0,-100.00,ESE,106,14.0,19.0,82,0.04,,,0.06,1.000000,,2013-05-25 03:02:00,
2013-05-24 22:11:00,55.0,52.0,-100.00,ESE,105,9.0,21.0,88,0.00,,,0.06,0.000000,,2013-05-25 03:11:00,
2013-05-24 22:33:00,55.0,52.0,-100.00,ESE,105,9.0,21.0,88,0.00,,,0.06,0.000000,,2013-05-25 03:33:00,
2013-05-24 22:43:00,55.0,52.0,-100.00,ESE,105,9.0,21.0,88,0.00,,,0.06,0.000000,,2013-05-25 03:43:00,
2013-05-24 22:53:00,55.0,52.0,-100.00,ESE,105,9.0,21.0,88,0.00,,,0.06,0.000000,,2013-05-25 03:53:00,
2013-05-24 23:02:00,55.0,52.0,-100.00,ESE,105,9.0,21.0,88,0.00,,,0.06,0.000000,,2013-05-25 04:02:00,
2013-05-24 23:11:00,54.0,51.0,-100.00,ESE,109,9.0,16.0,89,0.02,,,0.08,0.000000,,2013-05-25 04:11:00,
2013-05-24 23:33:00,54.0,51.0,-100.00,ESE,109,9.0,16.0,89,0.02,,,0.08,0.000000,,2013-05-25 04:33:00,
2013-05-24 23:43:00,54.0,51.0,-100.00,ESE,109,9.0,16.0,89,0.02,,,0.08,0.000000,,2013-05-25 04:43:00,
2013-05-24 23:53:00,54.0,51.0,-100.00,ESE,109,9.0,16.0,89,0.02,,,0.08,0.000000,,2013-05-25 04:53:00,